createdAt,value
2023-01-04T00:02:05.407Z,5.20
2023-01-04T00:04:33.648Z,5.10
2023-01-04T00:07:01.819Z,5.10
2023-01-04T00:09:30.049Z,5.00
2023-01-04T00:11:59.683Z,4.90
2023-01-04T00:14:27.897Z,4.80
2023-01-04T00:16:58.150Z,4.80
2023-01-04T00:19:26.465Z,4.70
2023-01-04T00:21:54.886Z,4.70
2023-01-04T00:24:23.198Z,4.70
2023-01-04T00:26:51.513Z,4.70
2023-01-04T00:29:21.520Z,4.60
2023-01-04T00:31:50.453Z,4.50
2023-01-04T00:34:19.446Z,4.30
2023-01-04T00:36:48.082Z,4.30
2023-01-04T00:39:18.225Z,4.30
2023-01-04T00:41:58.624Z,4.30
2023-01-04T00:44:29.701Z,4.30
2023-01-04T00:46:58.522Z,4.20
2023-01-04T00:49:27.587Z,4.30
2023-01-04T00:51:56.616Z,4.20
2023-01-04T00:54:25.276Z,4.10
2023-01-04T00:56:53.855Z,4.10
2023-01-04T00:59:23.435Z,4.10
2023-01-04T01:01:53.475Z,4.10
2023-01-04T01:04:24.650Z,4.20
2023-01-04T01:06:53.930Z,4.30
2023-01-04T01:09:23.891Z,4.40
2023-01-04T01:11:52.843Z,4.50
2023-01-04T01:14:23.271Z,4.50
2023-01-04T01:16:57.019Z,4.50
2023-01-04T01:19:27.492Z,4.60
2023-01-04T01:21:57.560Z,4.60
2023-01-04T01:24:28.392Z,4.70
2023-01-04T01:26:57.531Z,4.80
2023-01-04T01:29:26.795Z,4.90
2023-01-04T01:31:56.763Z,4.90
2023-01-04T01:34:24.998Z,4.90
2023-01-04T01:36:53.512Z,4.80
2023-01-04T01:39:21.984Z,4.80
2023-01-04T01:41:50.921Z,4.80
2023-01-04T01:45:10.885Z,4.80
2023-01-04T01:47:44.230Z,4.80
2023-01-04T01:50:23.164Z,4.80
2023-01-04T01:52:53.170Z,4.80
2023-01-04T01:55:21.918Z,4.80
2023-01-04T01:57:52.412Z,4.70
2023-01-04T02:00:20.768Z,4.70
2023-01-04T02:03:01.475Z,4.70
2023-01-04T02:05:31.120Z,4.80
2023-01-04T02:08:00.460Z,4.90
2023-01-04T02:10:28.681Z,5.00
2023-01-04T02:12:57.365Z,5.00
2023-01-04T02:15:29.821Z,5.00
2023-01-04T02:18:08.361Z,4.90
2023-01-04T02:20:51.486Z,4.90
2023-01-04T02:23:50.269Z,4.90
2023-01-04T02:27:10.211Z,4.90
2023-01-04T02:30:22.407Z,5.00
2023-01-04T02:33:14.659Z,5.00
2023-01-04T02:35:51.228Z,5.00
2023-01-04T02:38:25.371Z,5.10
2023-01-04T02:41:04.494Z,5.10
2023-01-04T02:43:56.221Z,5.10
2023-01-04T02:46:31.425Z,5.00
2023-01-04T02:49:20.429Z,5.00
2023-01-04T02:51:49.363Z,4.90
2023-01-04T02:54:25.189Z,4.80
2023-01-04T02:57:06.284Z,4.80
2023-01-04T02:59:51.849Z,4.80
2023-01-04T03:02:54.574Z,4.80
2023-01-04T03:05:46.294Z,4.80
2023-01-04T03:08:24.153Z,4.80
2023-01-04T03:11:01.178Z,4.70
2023-01-04T03:13:32.293Z,4.70
2023-01-04T03:16:05.069Z,4.80
2023-01-04T03:18:37.977Z,4.80
2023-01-04T03:21:10.873Z,4.80
2023-01-04T03:23:58.337Z,4.80
2023-01-04T03:26:47.370Z,4.70
2023-01-04T03:29:40.200Z,4.70
2023-01-04T03:32:30.245Z,4.60
2023-01-04T03:35:16.899Z,4.60
2023-01-04T03:38:12.438Z,4.70
2023-01-04T03:41:02.347Z,4.80
2023-01-04T03:43:56.639Z,4.80
2023-01-04T03:46:50.973Z,4.80
2023-01-04T03:49:28.849Z,4.70
2023-01-04T03:52:00.409Z,4.70
2023-01-04T03:54:34.123Z,4.70
2023-01-04T03:57:03.796Z,4.70
2023-01-04T03:59:34.129Z,4.70
2023-01-04T04:02:04.008Z,4.70
2023-01-04T04:04:50.244Z,4.80
2023-01-04T04:07:35.812Z,4.80
2023-01-04T04:10:06.232Z,4.90
2023-01-04T04:12:34.637Z,4.90
2023-01-04T04:15:03.293Z,5.00
2023-01-04T04:17:31.415Z,4.90
2023-01-04T04:19:59.669Z,4.90
2023-01-04T04:22:27.897Z,4.90
2023-01-04T04:24:58.044Z,4.90
2023-01-04T04:27:27.844Z,4.90
2023-01-04T04:29:55.990Z,4.90
2023-01-04T04:32:24.325Z,5.00
2023-01-04T04:34:52.575Z,5.10
2023-01-04T04:37:20.954Z,5.10
2023-01-04T04:39:49.120Z,5.10
2023-01-04T04:42:16.662Z,5.00
2023-01-04T04:44:46.247Z,5.10
2023-01-04T04:47:14.509Z,5.30
2023-01-04T04:49:42.707Z,5.40
2023-01-04T04:52:11.230Z,5.40
2023-01-04T04:54:39.466Z,5.40
2023-01-04T04:57:07.897Z,5.50
2023-01-04T04:59:36.326Z,5.60
2023-01-04T05:02:06.142Z,5.70
2023-01-04T05:04:34.489Z,5.70
2023-01-04T05:07:06.348Z,5.70
2023-01-04T05:09:37.186Z,5.80
2023-01-04T05:12:23.488Z,5.70
2023-01-04T05:14:51.705Z,5.70
2023-01-04T05:17:21.706Z,5.80
2023-01-04T05:19:49.941Z,5.80
2023-01-04T05:22:18.488Z,5.80
2023-01-04T05:24:48.957Z,5.80
2023-01-04T05:27:17.584Z,5.90
2023-01-04T05:30:03.032Z,5.90
2023-01-04T05:32:33.015Z,5.80
2023-01-04T05:35:01.293Z,6.00
2023-01-04T05:37:29.453Z,6.10
2023-01-04T05:39:57.676Z,6.20
2023-01-04T05:42:28.937Z,6.30
2023-01-04T05:44:58.891Z,6.30
2023-01-04T05:47:27.720Z,6.40
2023-01-04T05:49:57.357Z,6.50
2023-01-04T05:52:25.532Z,6.60
2023-01-04T05:54:54.351Z,6.60
2023-01-04T05:57:22.794Z,6.70
2023-01-04T05:59:51.041Z,6.70
2023-01-04T06:02:21.572Z,6.70
2023-01-04T06:04:58.134Z,6.70
2023-01-04T06:07:28.311Z,6.70
2023-01-04T06:09:57.030Z,6.80
2023-01-04T06:12:25.529Z,6.80
2023-01-04T06:14:54.042Z,6.80
2023-01-04T06:17:22.553Z,6.90
2023-01-04T06:19:51.023Z,6.90
2023-01-04T06:22:19.141Z,7.00
2023-01-04T06:24:49.239Z,7.10
2023-01-04T06:27:17.461Z,7.10
2023-01-04T06:29:45.639Z,7.00
2023-01-04T06:32:13.728Z,7.00
2023-01-04T06:34:42.295Z,7.00
2023-01-04T06:37:11.069Z,6.90
2023-01-04T06:39:39.814Z,6.90
2023-01-04T06:42:30.651Z,6.90
2023-01-04T06:44:59.066Z,6.90
2023-01-04T06:47:27.635Z,6.80
2023-01-04T06:49:55.850Z,6.80
2023-01-04T06:52:23.974Z,6.80
2023-01-04T06:54:52.146Z,6.70
2023-01-04T06:57:22.072Z,6.70
2023-01-04T06:59:50.222Z,6.60
2023-01-04T07:02:18.513Z,6.60
2023-01-04T07:04:47.031Z,6.70
2023-01-04T07:07:15.904Z,6.60
2023-01-04T07:09:44.302Z,6.70
2023-01-04T07:12:12.969Z,6.70
2023-01-04T07:14:42.866Z,6.70
2023-01-04T07:17:11.185Z,6.70
2023-01-04T07:19:39.710Z,6.70
2023-01-04T07:22:07.954Z,6.70
2023-01-04T07:24:36.059Z,6.70
2023-01-04T07:27:04.649Z,6.80
2023-01-04T07:29:33.446Z,6.70
2023-01-04T07:32:04.366Z,6.70
2023-01-04T07:34:35.048Z,6.70
2023-01-04T07:37:03.260Z,6.70
2023-01-04T07:39:31.432Z,6.70
2023-01-04T07:41:59.842Z,6.70
2023-01-04T07:44:28.302Z,6.70
2023-01-04T07:46:57.475Z,6.60
2023-01-04T07:49:27.211Z,6.60
2023-01-04T07:51:55.541Z,6.60
2023-01-04T07:54:24.978Z,6.50
2023-01-04T07:56:53.703Z,6.50
2023-01-04T07:59:23.292Z,6.60
2023-01-04T08:01:55.710Z,6.60
2023-01-04T08:04:31.063Z,6.70
2023-01-04T08:07:03.004Z,6.70
2023-01-04T08:09:31.762Z,6.60
2023-01-04T08:12:00.521Z,6.60
2023-01-04T08:14:28.792Z,6.70
2023-01-04T08:16:57.427Z,6.60
2023-01-04T08:19:28.028Z,6.70
2023-01-04T08:21:56.338Z,6.70
2023-01-04T08:24:24.487Z,6.60
2023-01-04T08:26:52.662Z,6.60
2023-01-04T08:29:21.786Z,6.60
2023-01-04T08:31:52.957Z,6.60
2023-01-04T08:34:21.157Z,6.70
2023-01-04T08:36:53.274Z,6.60
2023-01-04T08:39:22.021Z,6.70
2023-01-04T08:42:00.782Z,6.70
2023-01-04T08:44:35.752Z,6.70
2023-01-04T08:47:04.699Z,6.80
2023-01-04T08:49:33.127Z,6.80
2023-01-04T08:52:02.704Z,6.80
2023-01-04T08:54:30.913Z,6.70
2023-01-04T08:56:59.053Z,6.80
2023-01-04T08:59:27.502Z,6.80
2023-01-04T09:02:01.116Z,6.70
2023-01-04T09:04:33.030Z,6.70
2023-01-04T09:07:02.671Z,6.80
2023-01-04T09:09:31.547Z,6.80
2023-01-04T09:12:00.750Z,6.80
2023-01-04T09:14:29.009Z,6.80
2023-01-04T09:16:57.177Z,6.90
2023-01-04T09:19:25.432Z,6.90
2023-01-04T09:21:53.776Z,6.90
2023-01-04T09:24:23.513Z,7.00
2023-01-04T09:26:51.818Z,7.00
2023-01-04T09:29:20.120Z,7.00
2023-01-04T09:31:48.402Z,7.10
2023-01-04T09:34:17.878Z,7.10
2023-01-04T09:36:46.887Z,7.10
2023-01-04T09:39:22.537Z,7.20
2023-01-04T09:41:57.403Z,7.20
2023-01-04T09:45:21.049Z,7.20
2023-01-04T09:47:34.087Z,7.20
2023-01-04T09:50:07.335Z,7.20
2023-01-04T09:52:47.712Z,7.30
2023-01-04T09:55:39.834Z,7.20
2023-01-04T09:58:28.103Z,7.30
2023-01-04T10:01:03.093Z,7.30
2023-01-04T10:03:34.311Z,7.30
2023-01-04T10:06:03.667Z,7.40
2023-01-04T10:08:32.538Z,7.40
2023-01-04T10:11:23.367Z,7.40
2023-01-04T10:14:11.263Z,7.40
2023-01-04T10:22:50.628Z,7.50
2023-01-04T10:25:31.448Z,7.50
2023-01-04T10:28:10.401Z,7.60
2023-01-04T10:30:49.422Z,7.50
2023-01-04T10:33:25.525Z,7.60
2023-01-04T10:35:54.569Z,7.60
2023-01-04T10:38:26.974Z,7.60
2023-01-04T10:40:59.327Z,7.60
2023-01-04T10:44:12.079Z,7.60
2023-01-04T10:46:31.657Z,7.60
2023-01-04T10:49:08.550Z,7.60
2023-01-04T10:51:43.990Z,7.60
2023-01-04T10:54:19.632Z,7.60
2023-01-04T10:56:52.582Z,7.60
2023-01-04T10:59:25.113Z,7.60
2023-01-04T11:02:00.585Z,7.60
2023-01-04T11:04:34.363Z,7.70
2023-01-04T11:07:09.689Z,7.60
2023-01-04T11:09:43.362Z,7.70
2023-01-04T11:12:14.280Z,7.80
2023-01-04T11:14:42.588Z,7.80
2023-01-04T11:17:13.190Z,7.80
2023-01-04T11:19:42.533Z,7.80
2023-01-04T11:22:16.590Z,7.80
2023-01-04T11:25:24.509Z,7.80
2023-01-04T11:27:44.027Z,7.70
2023-01-04T11:30:18.463Z,7.80
2023-01-04T11:32:56.121Z,7.80
2023-01-04T11:35:42.602Z,7.80
2023-01-04T11:38:16.774Z,7.70
2023-01-04T11:40:59.674Z,7.60
2023-01-04T11:43:30.407Z,7.60
2023-01-04T11:46:01.802Z,7.60
2023-01-04T11:48:40.074Z,7.50
2023-01-04T11:51:18.216Z,7.50
2023-01-04T11:53:51.275Z,7.50
2023-01-04T11:56:22.688Z,7.50
2023-01-04T11:59:07.105Z,7.50
2023-01-04T12:01:37.683Z,7.50
2023-01-04T12:04:12.665Z,7.50
2023-01-04T12:06:46.799Z,7.50
2023-01-04T12:09:17.300Z,7.60
2023-01-04T12:11:51.578Z,7.60
2023-01-04T12:14:23.597Z,7.60
2023-01-04T12:17:01.393Z,7.70
2023-01-04T12:19:31.256Z,7.80
2023-01-04T12:22:03.064Z,7.80
2023-01-04T12:24:35.234Z,7.90
2023-01-04T12:27:04.517Z,7.90
2023-01-04T12:29:53.597Z,7.90
2023-01-04T12:32:46.756Z,7.90
2023-01-04T12:36:00.542Z,8.00
2023-01-04T12:39:06.306Z,8.00
2023-01-04T12:42:19.699Z,8.10
2023-01-04T12:45:16.985Z,8.10
2023-01-04T12:48:07.455Z,8.20
2023-01-04T12:51:30.162Z,8.30
2023-01-04T12:54:01.450Z,8.30
2023-01-04T12:57:06.845Z,8.30
2023-01-04T12:59:38.647Z,8.40
2023-01-04T13:02:22.739Z,8.30
2023-01-04T13:05:09.302Z,8.30
2023-01-04T13:07:44.797Z,8.30
2023-01-04T13:10:29.123Z,8.40
2023-01-04T13:13:18.527Z,8.50
2023-01-04T13:15:59.291Z,8.60
2023-01-04T13:18:39.027Z,8.60
2023-01-04T13:21:13.890Z,8.60
2023-01-04T13:23:49.320Z,8.60
2023-01-04T13:26:46.203Z,8.60
2023-01-04T13:29:17.752Z,8.60
2023-01-04T13:32:11.314Z,8.60
2023-01-04T13:34:41.237Z,8.70
2023-01-04T13:37:21.617Z,8.70
2023-01-04T13:39:52.228Z,8.70
2023-01-04T13:42:26.762Z,8.80
2023-01-04T13:45:26.846Z,8.90
2023-01-04T13:47:59.815Z,8.90
2023-01-04T13:50:36.766Z,8.90
2023-01-04T13:53:08.818Z,8.90
2023-01-04T13:55:39.091Z,9.00
2023-01-04T13:58:17.125Z,9.00
2023-01-04T14:00:47.091Z,9.00
2023-01-04T14:03:36.811Z,9.00
2023-01-04T14:06:18.712Z,9.00
2023-01-04T14:08:53.159Z,9.10
2023-01-04T14:11:41.796Z,9.00
2023-01-04T14:14:46.998Z,9.00
2023-01-04T14:17:18.913Z,8.90
2023-01-04T14:19:51.886Z,8.90
2023-01-04T14:22:39.852Z,8.80
2023-01-04T14:25:38.195Z,8.80
2023-01-04T14:28:21.726Z,8.80
2023-01-04T14:30:51.879Z,8.90
2023-01-04T14:33:23.220Z,8.90
2023-01-04T14:36:05.757Z,8.90
2023-01-04T14:38:38.497Z,8.90
2023-01-04T14:41:20.059Z,8.90
2023-01-04T14:43:49.920Z,8.90
2023-01-04T14:46:18.204Z,8.90
2023-01-04T14:48:46.798Z,8.90
2023-01-04T14:51:20.251Z,8.90
2023-01-04T14:53:48.682Z,8.90
2023-01-04T14:56:19.511Z,8.90
2023-01-04T14:58:48.144Z,9.00
2023-01-04T15:01:16.400Z,9.00
2023-01-04T15:03:44.686Z,9.00
2023-01-04T15:06:13.912Z,9.00
2023-01-04T15:08:43.960Z,9.00
2023-01-04T15:11:14.045Z,9.00
2023-01-04T15:13:42.506Z,9.00
2023-01-04T15:16:14.078Z,9.00
2023-01-04T15:18:42.396Z,9.00
2023-01-04T15:21:11.308Z,9.00
2023-01-04T15:23:40.621Z,9.00
2023-01-04T15:26:12.095Z,9.00
2023-01-04T15:28:40.389Z,9.00
2023-01-04T15:31:10.525Z,9.00
2023-01-04T15:33:39.826Z,9.00
2023-01-04T15:36:10.659Z,9.00
2023-01-04T15:38:39.095Z,9.00
2023-01-04T15:41:33.914Z,9.00
2023-01-04T15:44:01.406Z,9.10
2023-01-04T15:46:29.668Z,9.10
2023-01-04T15:48:57.977Z,9.10
2023-01-04T15:51:26.277Z,9.10
2023-01-04T15:53:56.689Z,9.20
2023-01-04T15:56:26.953Z,9.20
2023-01-04T15:58:55.884Z,9.30
2023-01-04T16:01:24.608Z,9.30
2023-01-04T16:03:54.130Z,9.30
2023-01-04T16:06:22.992Z,9.30
2023-01-04T16:08:52.948Z,9.30
2023-01-04T16:11:23.317Z,9.30
2023-01-04T16:13:53.976Z,9.30
2023-01-04T16:16:27.535Z,9.30
2023-01-04T16:18:58.338Z,9.30
2023-01-04T16:21:29.321Z,9.30
2023-01-04T16:24:07.265Z,9.20
2023-01-04T16:26:45.853Z,9.20
2023-01-04T16:29:15.686Z,9.20
2023-01-04T16:31:45.942Z,9.10
2023-01-04T16:34:15.616Z,9.20
2023-01-04T16:36:44.688Z,9.20
2023-01-04T16:39:13.352Z,9.20
2023-01-04T16:41:41.612Z,9.20
2023-01-04T16:44:13.539Z,9.20
2023-01-04T16:46:43.941Z,9.20
2023-01-04T16:49:15.022Z,9.30
2023-01-04T16:51:44.906Z,9.30
2023-01-04T16:54:15.209Z,9.40
2023-01-04T16:56:45.640Z,9.40
2023-01-04T16:59:15.830Z,9.50
2023-01-04T17:01:52.736Z,9.40
2023-01-04T17:04:24.767Z,9.50
2023-01-04T17:06:55.430Z,9.50
2023-01-04T17:09:23.643Z,9.60
2023-01-04T17:15:00.904Z,9.80
2023-01-04T17:17:37.280Z,9.90
2023-01-04T17:20:06.683Z,9.80
2023-01-04T17:22:35.727Z,9.80
2023-01-04T17:25:04.215Z,9.90
2023-01-04T17:27:32.555Z,9.90
2023-01-04T17:30:01.533Z,9.90
2023-01-04T17:32:30.131Z,10.00
2023-01-04T17:35:00.818Z,10.00
2023-01-04T17:37:28.962Z,10.00
2023-01-04T17:39:57.564Z,10.00
2023-01-04T17:42:26.002Z,10.00
2023-01-04T17:44:54.302Z,10.00
2023-01-04T17:47:22.545Z,10.00
2023-01-04T17:49:50.886Z,10.00
2023-01-04T17:52:27.386Z,10.00
2023-01-04T17:54:59.342Z,10.10
2023-01-04T17:57:29.392Z,10.10
2023-01-04T17:59:57.759Z,10.10
2023-01-04T18:02:26.164Z,10.00
2023-01-04T18:04:54.697Z,10.00
2023-01-04T18:07:25.456Z,10.00
2023-01-04T18:09:54.663Z,10.10
2023-01-04T18:12:23.362Z,10.10
2023-01-04T18:14:52.521Z,10.10
2023-01-04T18:17:20.850Z,10.10
2023-01-04T18:19:51.446Z,10.10
2023-01-04T18:22:19.666Z,10.10
2023-01-04T18:24:49.232Z,10.20
2023-01-04T18:27:22.690Z,10.10
2023-01-04T18:29:53.209Z,10.10
2023-01-04T18:32:21.740Z,10.10
2023-01-04T18:34:50.516Z,10.10
2023-01-04T18:37:19.576Z,10.20
2023-01-04T18:39:51.018Z,10.20
2023-01-04T18:42:19.790Z,10.20
2023-01-04T18:44:49.624Z,10.20
2023-01-04T18:47:21.910Z,10.30
2023-01-04T18:49:50.678Z,10.30
2023-01-04T18:52:20.060Z,10.30
2023-01-04T18:54:48.739Z,10.40
2023-01-04T18:57:18.704Z,10.50
2023-01-04T18:59:50.305Z,10.60
2023-01-04T19:02:20.457Z,10.50
2023-01-04T19:04:49.790Z,10.50
2023-01-04T19:07:18.248Z,10.50
2023-01-04T19:09:46.832Z,10.60
2023-01-04T19:12:15.665Z,10.60
2023-01-04T19:14:46.161Z,10.60
2023-01-04T19:17:17.541Z,10.60
2023-01-04T19:19:46.313Z,10.70
2023-01-04T19:22:15.587Z,10.70
2023-01-04T19:24:44.342Z,10.70
2023-01-04T19:27:12.937Z,10.60
2023-01-04T19:29:43.460Z,10.60
2023-01-04T19:32:13.789Z,10.60
2023-01-04T19:34:42.468Z,10.60
2023-01-04T19:37:10.811Z,10.60
2023-01-04T19:39:39.596Z,10.70
2023-01-04T19:42:08.623Z,10.70
2023-01-04T19:44:37.556Z,10.70
2023-01-04T19:47:05.947Z,10.70
2023-01-04T19:49:35.909Z,10.70
2023-01-04T19:52:04.437Z,10.70
2023-01-04T19:54:32.933Z,10.70
2023-01-04T19:57:01.966Z,10.70
2023-01-04T19:59:30.264Z,10.70
2023-01-04T20:02:01.545Z,10.70
2023-01-04T20:04:33.969Z,10.70
2023-01-04T20:07:04.092Z,10.70
2023-01-04T20:09:34.814Z,10.70
2023-01-04T20:12:03.727Z,10.60
2023-01-04T20:14:32.189Z,10.60
2023-01-04T20:17:01.080Z,10.60
2023-01-04T20:19:34.532Z,10.60
2023-01-04T20:22:05.108Z,10.60
2023-01-04T20:24:34.310Z,10.60
2023-01-04T20:27:03.124Z,10.60
2023-01-04T20:29:33.583Z,10.50
2023-01-04T20:32:03.568Z,10.60
2023-01-04T20:34:34.682Z,10.60
2023-01-04T20:37:04.610Z,10.60
2023-01-04T20:39:32.989Z,10.60
2023-01-04T20:42:18.856Z,10.70
2023-01-04T20:44:47.440Z,10.70
2023-01-04T20:47:16.342Z,10.70
2023-01-04T20:49:45.084Z,10.80
2023-01-04T20:52:14.942Z,10.80
2023-01-04T20:54:43.447Z,10.90
2023-01-04T20:57:11.979Z,10.90
2023-01-04T20:59:41.754Z,10.90
2023-01-04T21:02:11.874Z,11.00
2023-01-04T21:04:46.160Z,11.10
2023-01-04T21:07:15.957Z,11.10
2023-01-04T21:09:44.766Z,11.20
2023-01-04T21:12:13.036Z,11.20
2023-01-04T21:14:41.582Z,11.30
2023-01-04T21:17:10.239Z,11.30
2023-01-04T21:19:40.517Z,11.40
2023-01-04T21:22:08.813Z,11.40
2023-01-04T21:24:41.359Z,11.50
2023-01-04T21:27:09.558Z,11.60
2023-01-04T21:29:40.109Z,11.60
2023-01-04T21:32:08.408Z,11.60
2023-01-04T21:34:36.687Z,11.70
2023-01-04T21:37:04.964Z,11.60
2023-01-04T21:39:33.734Z,11.70
2023-01-04T21:42:04.682Z,11.70
2023-01-04T21:44:36.195Z,11.80
2023-01-04T21:47:04.504Z,11.80
2023-01-04T21:49:33.376Z,11.80
2023-01-04T21:52:01.854Z,11.80
2023-01-04T21:54:30.088Z,11.80
2023-01-04T21:56:58.489Z,11.70
2023-01-04T21:59:28.175Z,11.70
2023-01-04T22:01:56.576Z,11.70
2023-01-04T22:04:25.130Z,11.60
2023-01-04T22:06:53.532Z,11.70
2023-01-04T22:09:21.923Z,11.70
2023-01-04T22:11:52.759Z,11.70
2023-01-04T22:14:21.249Z,11.70
2023-01-04T22:16:51.044Z,11.70
2023-01-04T22:19:20.062Z,11.70
2023-01-04T22:21:48.507Z,11.70
2023-01-04T22:24:17.474Z,11.70
2023-01-04T22:26:47.256Z,11.70
2023-01-04T22:29:15.476Z,11.70
2023-01-04T22:31:44.478Z,11.70
2023-01-04T22:34:14.024Z,11.60
2023-01-04T22:36:42.976Z,11.60
2023-01-04T22:39:11.652Z,11.60
2023-01-04T22:41:41.645Z,11.70
2023-01-04T22:44:11.770Z,11.60
2023-01-04T22:46:40.849Z,11.60
2023-01-04T22:49:09.013Z,11.60
2023-01-04T22:51:41.704Z,11.60
2023-01-04T22:54:11.371Z,11.50
2023-01-04T22:56:39.852Z,11.50
2023-01-04T22:59:08.068Z,11.40
2023-01-04T23:01:36.322Z,11.50
2023-01-04T23:04:13.846Z,11.50
2023-01-04T23:06:43.634Z,11.40
2023-01-04T23:09:14.480Z,11.50
2023-01-04T23:11:43.673Z,11.50
2023-01-04T23:14:15.924Z,11.50
2023-01-04T23:16:44.772Z,11.50
2023-01-04T23:19:15.148Z,11.40
2023-01-04T23:21:45.252Z,11.50
2023-01-04T23:24:14.486Z,11.40
2023-01-04T23:26:44.064Z,11.40
2023-01-04T23:29:13.161Z,11.40
2023-01-04T23:31:41.433Z,11.50
2023-01-04T23:34:12.001Z,11.50
2023-01-04T23:36:43.424Z,11.50
2023-01-04T23:39:15.133Z,11.60
2023-01-04T23:41:47.993Z,11.60
2023-01-04T23:44:19.193Z,11.60
2023-01-04T23:46:48.871Z,11.60
2023-01-04T23:49:17.160Z,11.60
2023-01-04T23:51:47.645Z,11.60
2023-01-04T23:54:17.995Z,11.60
2023-01-04T23:56:46.486Z,11.60
2023-01-04T23:59:14.766Z,11.60
